Terminal Aerodrome Forecast
Issued by NWS Sioux Falls, SD

Home | Current Version | Previous Version | Text Only | Print | Product List | Glossary On
Versions: 1 2 3 4 5 6 7 8 9 10 11 12 13 14
000
FTUS43 KFSD 032321
TAFFSD
TAF
KFSD 032321Z 0400/0424 01015G24KT P6SM SCT080
     FM040200 02012KT P6SM SCT100
     FM040700 04010KT P6SM BKN060
     FM041400 05015G21KT P6SM SCT150
     FM041900 07012KT P6SM BKN150=

USA.gov is the U.S. government's official web portal to all federal, state and local government web resources and services.